Time;durP1;ratioP1;P1;durP2;ratioP2;P2;SDS_P1;SDS_P2;PMS_P1;PMS_P2;Temp;Humidity;BMP_temperature;BMP_pressure;BME280_temperature;BME280_humidity;BME280_pressure;Samples;Min_cycle;Max_cycle;Signal;HPM_P1;HPM_P2
2021/07/08 00:00:16;;;;;;;0.70;0.70;;;17.00;99.90;;;;;;5093835;28;20432;-79
2021/07/08 00:02:43;;;;;;;1.83;1.43;;;17.00;99.90;;;;;;5093557;28;20507;-83
2021/07/08 00:05:12;;;;;;;2.60;0.87;;;17.00;99.90;;;;;;5093347;28;20818;-83
2021/07/08 00:07:39;;;;;;;1.77;1.27;;;17.00;99.90;;;;;;5093578;28;20464;-84
2021/07/08 00:10:08;;;;;;;1.03;1.03;;;17.00;99.90;;;;;;5093239;28;20444;-83
2021/07/08 00:12:35;;;;;;;0.80;0.80;;;17.00;99.90;;;;;;5093316;28;21000;-85
2021/07/08 00:15:05;;;;;;;1.10;1.00;;;17.00;99.90;;;;;;5093229;28;20478;-85
2021/07/08 00:17:32;;;;;;;1.60;1.07;;;17.00;99.90;;;;;;5093716;28;20443;-85
2021/07/08 00:19:58;;;;;;;1.23;1.00;;;17.00;99.90;;;;;;5093573;28;20447;-86
2021/07/08 00:22:25;;;;;;;1.40;1.10;;;17.00;99.90;;;;;;5093411;28;20436;-85
2021/07/08 00:24:52;;;;;;;1.27;1.20;;;17.00;99.90;;;;;;5093491;28;20444;-85
2021/07/08 00:27:18;;;;;;;1.80;1.10;;;17.00;99.90;;;;;;5093370;28;20452;-85
2021/07/08 00:29:45;;;;;;;1.83;1.20;;;17.00;99.90;;;;;;5093104;28;20927;-86
2021/07/08 00:32:15;;;;;;;1.30;1.20;;;17.00;99.90;;;;;;5093456;28;20439;-86
2021/07/08 00:34:42;;;;;;;1.30;1.23;;;17.00;99.90;;;;;;5093867;28;20521;-86
2021/07/08 00:37:08;;;;;;;1.17;1.07;;;17.00;99.90;;;;;;5093366;28;20452;-85
2021/07/08 00:39:35;;;;;;;1.17;1.07;;;17.00;99.90;;;;;;5093301;28;20563;-86
2021/07/08 00:42:02;;;;;;;1.20;1.10;;;17.00;99.90;;;;;;5093338;28;20455;-85
2021/07/08 00:44:29;;;;;;;1.60;1.50;;;17.00;99.90;;;;;;5093257;28;20439;-85
2021/07/08 00:46:55;;;;;;;1.60;1.50;;;17.00;99.90;;;;;;5093303;28;20443;-85
2021/07/08 00:49:23;;;;;;;1.33;1.10;;;17.00;99.90;;;;;;5092834;28;20994;-77
2021/07/08 00:51:50;;;;;;;1.50;1.40;;;17.00;99.90;;;;;;5093219;28;20443;-78
2021/07/08 00:54:17;;;;;;;2.97;1.50;;;17.00;99.90;;;;;;5093099;28;20471;-77
2021/07/08 00:56:44;;;;;;;1.77;1.60;;;16.90;99.90;;;;;;5093123;28;20436;-86
2021/07/08 00:59:11;;;;;;;3.03;1.70;;;16.90;99.90;;;;;;5092784;28;20994;-85
2021/07/08 01:01:40;;;;;;;4.63;1.77;;;16.90;99.90;;;;;;5093072;28;20472;-86
2021/07/08 01:04:06;;;;;;;1.83;1.70;;;16.90;99.90;;;;;;5092819;28;20923;-86
2021/07/08 01:06:36;;;;;;;1.90;1.80;;;17.00;99.90;;;;;;5093085;28;20452;-86
2021/07/08 01:09:05;;;;;;;2.53;1.60;;;17.00;99.90;;;;;;5093028;28;20466;-86
2021/07/08 01:11:32;;;;;;;2.40;2.20;;;17.00;99.90;;;;;;5096449;28;20451;-79
2021/07/08 01:13:59;;;;;;;2.77;1.60;;;16.90;99.90;;;;;;5096543;28;20479;-79
2021/07/08 01:16:27;;;;;;;1.83;1.73;;;16.90;99.90;;;;;;5097034;28;20444;-80
2021/07/08 01:18:54;;;;;;;2.27;2.07;;;16.90;99.90;;;;;;5096672;28;20537;-80
2021/07/08 01:21:25;;;;;;;2.30;1.90;;;16.90;99.90;;;;;;5096699;28;20450;-80
2021/07/08 01:23:52;;;;;;;1.50;1.40;;;16.90;99.90;;;;;;5096390;28;20791;-79
2021/07/08 01:26:19;;;;;;;1.50;1.40;;;16.90;99.90;;;;;;5096862;28;20470;-81
2021/07/08 01:28:47;;;;;;;1.87;1.53;;;17.00;99.90;;;;;;5096429;28;20850;-79
2021/07/08 01:31:14;;;;;;;1.97;1.77;;;16.90;99.90;;;;;;5096205;28;20448;-79
2021/07/08 01:33:41;;;;;;;1.77;1.57;;;16.90;99.90;;;;;;5096325;28;20495;-80
2021/07/08 01:36:08;;;;;;;1.83;1.73;;;16.80;99.90;;;;;;5096420;28;20466;-80
2021/07/08 01:38:36;;;;;;;1.90;1.80;;;16.80;99.90;;;;;;5096248;28;20472;-80
2021/07/08 01:41:03;;;;;;;2.07;1.50;;;16.80;99.90;;;;;;5096201;28;20817;-80
2021/07/08 01:43:33;;;;;;;1.87;1.47;;;16.70;99.90;;;;;;5096036;28;20928;-79
2021/07/08 01:46:00;;;;;;;1.37;1.30;;;16.70;99.90;;;;;;5096745;28;20955;-79
2021/07/08 01:48:26;;;;;;;1.77;1.67;;;16.70;99.90;;;;;;5096099;28;20467;-79
2021/07/08 01:50:54;;;;;;;4.50;1.70;;;16.70;99.90;;;;;;5096126;28;20479;-79
2021/07/08 01:53:20;;;;;;;1.80;1.50;;;16.60;99.90;;;;;;5095767;28;20428;-79
2021/07/08 01:55:48;;;;;;;2.13;2.03;;;16.60;99.90;;;;;;5096031;28;20439;-80
2021/07/08 01:58:15;;;;;;;1.93;1.77;;;16.60;99.90;;;;;;5095577;28;21014;-79
2021/07/08 02:00:42;;;;;;;1.90;1.67;;;16.60;99.90;;;;;;5095819;28;20456;-80
2021/07/08 02:03:09;;;;;;;2.47;1.73;;;16.60;99.90;;;;;;5095615;28;20436;-79
2021/07/08 02:05:35;;;;;;;2.30;1.83;;;16.60;99.90;;;;;;5095836;28;20452;-79
2021/07/08 02:08:02;;;;;;;1.67;1.20;;;16.60;99.90;;;;;;5095505;28;20990;-79
2021/07/08 02:10:29;;;;;;;6.07;2.20;;;16.60;99.90;;;;;;5095780;28;20455;-79
2021/07/08 02:12:57;;;;;;;2.57;2.37;;;16.60;99.90;;;;;;5095710;28;20471;-79
2021/07/08 02:15:24;;;;;;;1.50;1.40;;;16.60;99.90;;;;;;5095632;28;20479;-79
2021/07/08 02:17:51;;;;;;;2.17;1.87;;;16.60;99.90;;;;;;5095547;28;20463;-79
2021/07/08 02:20:18;;;;;;;1.70;1.60;;;16.60;99.90;;;;;;5095386;28;20444;-79
2021/07/08 02:22:46;;;;;;;1.40;1.27;;;16.60;99.90;;;;;;5095705;28;20467;-79
2021/07/08 02:25:14;;;;;;;1.60;1.50;;;16.60;99.90;;;;;;5095483;28;20448;-79
2021/07/08 02:27:41;;;;;;;1.50;1.40;;;16.60;99.90;;;;;;5095380;28;20469;-79
2021/07/08 02:30:11;;;;;;;1.93;1.83;;;16.60;99.90;;;;;;5095356;28;20444;-79
2021/07/08 02:32:38;;;;;;;1.50;1.40;;;16.60;99.90;;;;;;5095540;28;20444;-79
2021/07/08 02:35:07;;;;;;;2.67;1.50;;;16.50;99.90;;;;;;5095203;28;20494;-79
2021/07/08 02:37:34;;;;;;;2.23;2.13;;;16.50;99.90;;;;;;5095204;28;20437;-79
2021/07/08 02:40:01;;;;;;;2.20;1.90;;;16.60;99.90;;;;;;5095227;28;20447;-79
2021/07/08 02:42:27;;;;;;;1.83;1.73;;;16.60;99.90;;;;;;5095247;28;20456;-87
2021/07/08 02:44:54;;;;;;;1.60;1.50;;;16.50;99.90;;;;;;5095197;28;20439;-86
2021/07/08 02:47:22;;;;;;;1.70;1.60;;;16.50;99.90;;;;;;5095860;28;20444;-79
2021/07/08 02:49:49;;;;;;;1.77;1.50;;;16.60;99.90;;;;;;5094979;28;20816;-78
2021/07/08 02:52:15;;;;;;;3.67;1.73;;;16.50;99.90;;;;;;5094878;28;20944;-79
2021/07/08 02:54:42;;;;;;;1.50;1.40;;;16.50;99.90;;;;;;5094500;28;20487;-79
2021/07/08 02:57:09;;;;;;;2.20;2.10;;;16.50;99.90;;;;;;5095054;28;20452;-79
2021/07/08 02:59:36;;;;;;;2.30;2.13;;;16.50;99.90;;;;;;5094705;28;20467;-79
2021/07/08 03:02:02;;;;;;;1.90;1.80;;;16.50;99.90;;;;;;5094541;28;20479;-79
2021/07/08 03:04:31;;;;;;;2.87;1.90;;;16.50;99.90;;;;;;5094352;28;20939;-79
2021/07/08 03:06:57;;;;;;;1.80;1.70;;;16.50;99.90;;;;;;5094341;28;20938;-79
2021/07/08 03:09:24;;;;;;;2.00;1.90;;;16.50;99.90;;;;;;5094561;28;20861;-79
2021/07/08 03:11:51;;;;;;;2.20;1.90;;;16.50;99.90;;;;;;5094217;28;20838;-79
2021/07/08 03:14:18;;;;;;;2.40;2.20;;;16.50;99.90;;;;;;5094425;28;20496;-79
2021/07/08 03:16:44;;;;;;;2.00;1.90;;;16.60;99.90;;;;;;5094432;28;20448;-78
2021/07/08 03:19:11;;;;;;;1.70;1.60;;;16.50;99.90;;;;;;5094616;28;20459;-83
2021/07/08 03:21:39;;;;;;;2.80;1.90;;;16.50;99.90;;;;;;5094090;28;20447;-83
2021/07/08 03:24:06;;;;;;;2.07;1.83;;;16.50;99.90;;;;;;5099238;28;20443;-83
2021/07/08 03:26:33;;;;;;;2.17;1.87;;;16.50;99.90;;;;;;5094318;28;20538;-83
2021/07/08 03:29:00;;;;;;;1.70;1.60;;;16.50;99.90;;;;;;5094157;28;20459;-83
2021/07/08 03:31:27;;;;;;;2.67;1.60;;;16.50;99.90;;;;;;5094270;28;20450;-86
2021/07/08 03:33:54;;;;;;;2.07;1.90;;;16.50;99.90;;;;;;5093714;28;20455;-87
2021/07/08 03:36:21;;;;;;;3.90;1.70;;;16.40;99.90;;;;;;5094426;28;20970;-87
2021/07/08 03:38:49;;;;;;;4.87;1.63;;;16.40;99.90;;;;;;5094198;28;20475;-87
2021/07/08 03:41:16;;;;;;;1.67;1.57;;;16.40;99.90;;;;;;5094126;28;20429;-87
2021/07/08 03:43:43;;;;;;;1.73;1.63;;;16.40;99.90;;;;;;5094312;28;20452;-86
2021/07/08 03:46:09;;;;;;;2.20;2.00;;;16.50;99.90;;;;;;5093832;28;20778;-83
2021/07/08 03:48:36;;;;;;;1.53;1.43;;;16.50;99.90;;;;;;5093875;28;20468;-83
2021/07/08 03:51:03;;;;;;;2.73;1.60;;;16.50;99.90;;;;;;5093827;28;20436;-83
2021/07/08 03:53:30;;;;;;;1.97;1.80;;;16.50;99.90;;;;;;5093611;28;20455;-83
2021/07/08 03:55:58;;;;;;;4.40;1.40;;;16.50;99.90;;;;;;5093410;28;21028;-79
2021/07/08 03:58:25;;;;;;;1.60;1.50;;;16.50;99.90;;;;;;5093378;28;20995;-79
2021/07/08 04:00:52;;;;;;;1.20;1.20;;;16.50;99.90;;;;;;5093425;28;20462;-80
2021/07/08 04:03:19;;;;;;;1.90;1.33;;;16.50;99.90;;;;;;5094353;28;20444;-79
2021/07/08 04:05:47;;;;;;;1.93;1.60;;;16.50;99.90;;;;;;5093691;28;20444;-80
2021/07/08 04:08:15;;;;;;;1.67;1.53;;;16.50;99.90;;;;;;5093565;28;20474;-80
2021/07/08 04:10:44;;;;;;;1.30;1.20;;;16.50;99.90;;;;;;5093615;28;20447;-80
2021/07/08 04:13:14;;;;;;;1.83;1.53;;;16.50;99.90;;;;;;5093583;28;20452;-80
2021/07/08 04:15:42;;;;;;;1.70;1.30;;;16.40;99.90;;;;;;5093533;28;20840;-80
2021/07/08 04:18:10;;;;;;;1.63;1.53;;;16.40;99.90;;;;;;5093957;28;20471;-80
2021/07/08 04:20:37;;;;;;;1.43;1.30;;;16.40;99.90;;;;;;5093453;28;20448;-80
2021/07/08 04:23:05;;;;;;;1.67;1.30;;;16.40;99.90;;;;;;5093118;28;20951;-80
2021/07/08 04:25:33;;;;;;;3.10;1.47;;;16.40;99.90;;;;;;5093446;28;20444;-80
2021/07/08 04:28:00;;;;;;;1.83;1.73;;;16.50;99.90;;;;;;5093389;28;20468;-80
2021/07/08 04:30:29;;;;;;;3.13;1.80;;;16.40;99.90;;;;;;5093137;28;20439;-80
2021/07/08 04:32:57;;;;;;;1.10;1.10;;;16.40;99.90;;;;;;5093340;28;20440;-79
2021/07/08 04:35:29;;;;;;;1.97;1.40;;;16.50;99.90;;;;;;5093279;28;20489;-79
2021/07/08 04:37:56;;;;;;;1.77;1.67;;;16.50;99.90;;;;;;5093001;28;20460;-80
2021/07/08 04:40:23;;;;;;;4.43;1.63;;;16.50;99.90;;;;;;5093349;28;20548;-80
2021/07/08 04:42:50;;;;;;;2.57;2.10;;;16.50;99.90;;;;;;5093186;28;20448;-80
2021/07/08 04:45:17;;;;;;;1.83;1.73;;;16.50;99.90;;;;;;5096273;28;20939;-79
2021/07/08 04:47:47;;;;;;;2.30;2.20;;;16.40;99.90;;;;;;5097137;28;20471;-79
2021/07/08 04:50:16;;;;;;;3.37;2.47;;;16.40;99.90;;;;;;5096998;28;20443;-80
2021/07/08 04:52:43;;;;;;;13.20;3.47;;;16.40;99.90;;;;;;5097323;28;20454;-80
2021/07/08 04:55:11;;;;;;;2.90;2.70;;;16.50;99.90;;;;;;5097020;28;20468;-80
2021/07/08 04:57:38;;;;;;;2.97;2.77;;;16.40;99.90;;;;;;5097097;28;20443;-80
2021/07/08 05:00:08;;;;;;;5.80;3.20;;;16.40;99.90;;;;;;5096983;28;20919;-80
2021/07/08 05:02:36;;;;;;;3.20;2.90;;;16.40;99.90;;;;;;5096941;28;20475;-86
2021/07/08 05:05:05;;;;;;;7.27;2.97;;;16.40;99.90;;;;;;5097157;28;20451;-87
2021/07/08 05:07:31;;;;;;;3.47;3.23;;;16.40;99.90;;;;;;5097254;28;20455;-87
2021/07/08 05:09:58;;;;;;;4.63;3.17;;;16.40;99.90;;;;;;5097299;28;20451;-88
2021/07/08 05:12:25;;;;;;;5.63;2.70;;;16.40;99.90;;;;;;5097097;28;20927;-88
2021/07/08 05:14:52;;;;;;;3.40;3.10;;;16.30;99.90;;;;;;5097042;28;20480;-80
2021/07/08 05:17:19;;;;;;;4.10;3.53;;;16.30;99.90;;;;;;5096716;28;20447;-80
2021/07/08 05:19:46;;;;;;;2.77;2.57;;;16.30;99.90;;;;;;5096758;28;20459;-78
2021/07/08 05:22:16;;;;;;;3.30;3.00;;;16.30;99.90;;;;;;5096385;28;20954;-78
2021/07/08 05:24:43;;;;;;;3.50;3.30;;;16.30;99.90;;;;;;5096673;28;20773;-78
2021/07/08 05:27:12;;;;;;;3.90;3.40;;;16.40;99.90;;;;;;5096594;28;20443;-78
2021/07/08 05:29:39;;;;;;;2.83;2.57;;;16.40;99.90;;;;;;5096381;28;20467;-79
2021/07/08 05:32:07;;;;;;;1.93;1.83;;;16.40;99.90;;;;;;5096425;28;20455;-80
2021/07/08 05:34:33;;;;;;;1.83;1.73;;;16.50;99.90;;;;;;5096332;28;20452;-80
2021/07/08 05:37:00;;;;;;;2.43;2.20;;;16.50;99.90;;;;;;5097348;28;20444;-80
2021/07/08 05:39:28;;;;;;;2.30;1.70;;;16.50;99.90;;;;;;5096190;28;20483;-80
2021/07/08 05:41:55;;;;;;;2.40;1.90;;;16.50;99.90;;;;;;5096316;28;20451;-80
2021/07/08 05:44:22;;;;;;;3.77;2.50;;;16.60;99.90;;;;;;5096243;28;20451;-80
2021/07/08 05:46:48;;;;;;;3.33;2.77;;;16.60;99.90;;;;;;5096213;28;20467;-80
2021/07/08 05:49:15;;;;;;;2.90;2.67;;;16.60;99.90;;;;;;5096691;28;20951;-88
2021/07/08 05:51:42;;;;;;;2.33;2.23;;;16.60;99.90;;;;;;5096507;28;20448;-88
2021/07/08 05:54:09;;;;;;;4.40;2.60;;;16.70;99.90;;;;;;5096540;28;20459;-88
2021/07/08 05:56:37;;;;;;;2.60;2.40;;;16.70;99.90;;;;;;5095266;28;20476;-80
2021/07/08 05:59:04;;;;;;;2.83;2.53;;;16.70;99.90;;;;;;5095929;28;20467;-80
2021/07/08 06:01:30;;;;;;;2.40;2.23;;;16.70;99.90;;;;;;5095566;28;20482;-80
2021/07/08 06:03:57;;;;;;;2.07;1.97;;;16.70;99.90;;;;;;5096004;28;20440;-88
2021/07/08 06:06:24;;;;;;;3.33;2.30;;;16.70;99.90;;;;;;5095742;28;20436;-80
2021/07/08 06:08:51;;;;;;;2.30;1.90;;;16.70;99.90;;;;;;5095454;28;20472;-78
2021/07/08 06:11:18;;;;;;;3.10;1.90;;;16.80;99.90;;;;;;5095456;28;20938;-76
2021/07/08 06:13:46;;;;;;;1.70;1.60;;;16.80;99.90;;;;;;5096826;28;20539;-85
2021/07/08 06:16:13;;;;;;;4.47;1.80;;;16.80;99.90;;;;;;5095945;28;20994;-86
2021/07/08 06:18:39;;;;;;;2.67;1.50;;;16.80;99.90;;;;;;5095921;28;20842;-86
2021/07/08 06:21:06;;;;;;;3.10;2.27;;;16.90;99.90;;;;;;5095861;28;20448;-86
2021/07/08 06:23:34;;;;;;;2.10;1.40;;;16.80;99.90;;;;;;5095887;28;20503;-86
2021/07/08 06:26:01;;;;;;;1.53;1.23;;;16.90;99.90;;;;;;5095938;28;20451;-88
2021/07/08 06:28:28;;;;;;;2.13;1.97;;;16.80;99.90;;;;;;5095420;28;21016;-88
2021/07/08 06:30:56;;;;;;;2.30;2.00;;;16.90;99.90;;;;;;5095654;28;20497;-78
2021/07/08 06:33:23;;;;;;;2.30;1.37;;;16.90;99.90;;;;;;5095370;28;20443;-88
2021/07/08 06:35:49;;;;;;;1.80;1.60;;;16.90;99.90;;;;;;5095559;28;20487;-88
2021/07/08 06:38:16;;;;;;;2.37;1.80;;;16.90;99.90;;;;;;5094812;28;20475;-80
2021/07/08 06:40:43;;;;;;;2.00;1.90;;;16.90;99.90;;;;;;5095048;28;20458;-84
2021/07/08 06:43:10;;;;;;;2.80;2.00;;;16.90;99.90;;;;;;5095077;28;20455;-84
2021/07/08 06:45:37;;;;;;;3.00;1.60;;;16.90;99.90;;;;;;5094949;28;20440;-78
2021/07/08 06:48:06;;;;;;;4.13;2.40;;;16.90;99.90;;;;;;5095021;28;20471;-78
2021/07/08 06:50:36;;;;;;;1.93;1.80;;;16.90;99.90;;;;;;5094744;28;20440;-86
2021/07/08 06:53:03;;;;;;;6.40;2.33;;;17.00;99.90;;;;;;5095002;28;20444;-86
2021/07/08 06:55:30;;;;;;;4.80;2.10;;;17.00;99.90;;;;;;5094534;28;20482;-86
2021/07/08 06:57:57;;;;;;;2.23;2.03;;;17.00;99.90;;;;;;5094501;28;20529;-85
2021/07/08 07:00:26;;;;;;;5.73;1.90;;;17.10;99.90;;;;;;5094837;28;20451;-82
2021/07/08 07:02:53;;;;;;;6.40;2.33;;;17.10;99.90;;;;;;5094339;28;20479;-82
2021/07/08 07:05:22;;;;;;;1.70;1.57;;;17.20;99.90;;;;;;5094663;28;20440;-82
2021/07/08 07:07:50;;;;;;;5.33;1.67;;;17.20;99.90;;;;;;5093370;28;20452;-82
2021/07/08 07:10:17;;;;;;;2.23;2.00;;;17.30;99.90;;;;;;5094568;28;20452;-82
2021/07/08 07:12:45;;;;;;;1.83;1.73;;;17.30;99.90;;;;;;5094556;28;20448;-78
2021/07/08 07:15:13;;;;;;;1.93;1.80;;;17.40;99.90;;;;;;5094160;28;20542;-78
2021/07/08 07:17:40;;;;;;;1.80;1.70;;;17.40;99.90;;;;;;5094447;28;20471;-78
2021/07/08 07:20:09;;;;;;;1.97;1.87;;;17.40;99.90;;;;;;5094372;28;20451;-78
2021/07/08 07:22:38;;;;;;;4.47;1.70;;;17.50;99.90;;;;;;5094437;28;20451;-78
2021/07/08 07:25:07;;;;;;;2.33;1.77;;;17.60;99.90;;;;;;5094375;28;20448;-78
2021/07/08 07:27:34;;;;;;;1.73;1.60;;;17.60;99.90;;;;;;5094264;28;20428;-78
2021/07/08 07:30:03;;;;;;;2.33;2.13;;;17.70;99.90;;;;;;5094268;28;20436;-77
2021/07/08 07:32:29;;;;;;;1.30;1.30;;;17.80;99.90;;;;;;5094527;28;20473;-82
2021/07/08 07:34:56;;;;;;;1.27;1.20;;;17.90;99.90;;;;;;5094264;28;20439;-74
2021/07/08 07:37:23;;;;;;;1.30;1.20;;;17.90;99.90;;;;;;5093711;28;20978;-81
2021/07/08 07:39:51;;;;;;;1.60;1.50;;;18.00;99.90;;;;;;5094168;28;20428;-77
2021/07/08 07:42:18;;;;;;;2.40;1.30;;;18.10;99.90;;;;;;5094279;28;20475;-77
2021/07/08 07:44:47;;;;;;;2.10;1.60;;;18.10;99.90;;;;;;5093727;28;20431;-77
2021/07/08 07:47:14;;;;;;;1.77;1.30;;;18.10;99.90;;;;;;5093993;28;20444;-76
2021/07/08 07:49:41;;;;;;;6.40;4.00;;;18.10;99.90;;;;;;5093867;28;20456;-83
2021/07/08 07:52:08;;;;;;;2.40;2.20;;;18.10;99.90;;;;;;5093888;28;20526;-81
2021/07/08 07:54:36;;;;;;;1.63;1.53;;;18.00;99.90;;;;;;5094290;28;20769;-84
2021/07/08 07:57:05;;;;;;;2.67;1.43;;;17.90;99.90;;;;;;5094007;28;20502;-77
2021/07/08 07:59:32;;;;;;;1.67;1.53;;;17.90;99.90;;;;;;5093687;28;20563;-77
2021/07/08 08:02:01;;;;;;;2.00;1.80;;;17.90;99.90;;;;;;5093544;28;20476;-75
2021/07/08 08:04:29;;;;;;;1.73;1.63;;;17.90;99.90;;;;;;5093726;28;20460;-75
2021/07/08 08:09:40;;;;;;;1.53;1.47;;;17.90;99.90;;;;;;5093433;28;20439;-82
2021/07/08 08:12:09;;;;;;;1.80;1.70;;;17.90;99.90;;;;;;5094013;28;20452;-83
2021/07/08 08:14:37;;;;;;;1.83;1.60;;;18.00;99.90;;;;;;5093282;28;20942;-84
2021/07/08 08:17:04;;;;;;;1.63;1.20;;;18.00;99.90;;;;;;5093154;28;20478;-75
2021/07/08 08:19:31;;;;;;;1.73;1.63;;;18.10;99.90;;;;;;5093135;28;20464;-75
2021/07/08 08:21:57;;;;;;;1.40;1.30;;;18.10;99.90;;;;;;5093689;28;20451;-83
2021/07/08 08:24:24;;;;;;;2.40;1.43;;;18.20;99.90;;;;;;5093486;28;20447;-83
2021/07/08 08:26:52;;;;;;;0.93;0.93;;;18.30;99.90;;;;;;5093669;28;20444;-84
2021/07/08 08:29:20;;;;;;;1.20;1.10;;;18.40;99.90;;;;;;5093319;28;20460;-83
2021/07/08 08:31:47;;;;;;;1.00;1.00;;;18.50;99.90;;;;;;5093058;28;20454;-85
2021/07/08 08:34:14;;;;;;;1.80;1.10;;;18.70;99.90;;;;;;5093301;28;20452;-75
2021/07/08 08:36:41;;;;;;;1.00;1.00;;;18.80;99.90;;;;;;5092950;28;20475;-77
2021/07/08 08:39:07;;;;;;;1.57;1.33;;;19.00;99.90;;;;;;5092948;28;20998;-77
2021/07/08 08:41:34;;;;;;;1.50;1.17;;;19.10;99.90;;;;;;5093046;28;20452;-81
2021/07/08 08:44:01;;;;;;;1.20;1.20;;;19.20;99.90;;;;;;5093792;28;20479;-81
2021/07/08 08:46:29;;;;;;;1.60;1.50;;;19.30;99.90;;;;;;5093149;28;20447;-81
2021/07/08 08:48:56;;;;;;;1.10;1.10;;;19.30;99.90;;;;;;5093262;28;20471;-84
2021/07/08 08:51:25;;;;;;;1.00;1.00;;;19.40;99.90;;;;;;5093207;28;20448;-85
2021/07/08 08:53:51;;;;;;;1.30;1.10;;;19.50;99.90;;;;;;5093318;28;20444;-85
2021/07/08 08:56:19;;;;;;;1.40;1.30;;;19.50;99.90;;;;;;5093180;28;20464;-85
2021/07/08 08:58:46;;;;;;;1.30;1.20;;;19.50;99.90;;;;;;5093750;28;20817;-83
2021/07/08 09:01:16;;;;;;;1.40;1.30;;;19.40;99.90;;;;;;5093194;28;20476;-87
2021/07/08 09:03:45;;;;;;;1.37;1.27;;;19.30;99.90;;;;;;5093004;28;20794;-87
2021/07/08 09:06:13;;;;;;;1.67;1.57;;;19.20;99.90;;;;;;5093440;28;20515;-87
2021/07/08 09:08:44;;;;;;;1.60;1.50;;;19.20;99.90;;;;;;5093695;28;20567;-87
2021/07/08 09:11:16;;;;;;;3.57;1.20;;;19.20;99.90;;;;;;5093778;28;20460;-88
2021/07/08 09:13:48;;;;;;;1.60;1.50;;;19.10;99.90;;;;;;5093049;28;20447;-87
2021/07/08 09:16:17;;;;;;;1.20;1.20;;;19.10;99.90;;;;;;5092986;28;20813;-88
2021/07/08 09:18:55;;;;;;;1.53;1.40;;;19.10;99.90;;;;;;5093089;28;20476;-88
2021/07/08 09:21:22;;;;;;;1.53;1.43;;;19.10;99.90;;;;;;5093014;28;20408;-89
2021/07/08 09:24:05;;;;;;;2.70;2.43;;;19.10;99.90;;;;;;5095535;28;20409;-87
2021/07/08 09:26:32;;;;;;;1.60;1.60;;;19.10;99.90;;;;;;5091114;28;20444;-87
2021/07/08 09:29:05;;;;;;;1.67;1.57;;;19.20;99.90;;;;;;5092999;28;20466;-87
2021/07/08 09:31:32;;;;;;;1.80;1.70;;;19.10;99.90;;;;;;5094775;28;20405;-88
2021/07/08 09:34:16;;;;;;;2.20;1.87;;;19.10;99.90;;;;;;5097077;28;20428;-88
2021/07/08 09:36:43;;;;;;;1.70;1.60;;;19.20;99.90;;;;;;5097003;28;20478;-88
2021/07/08 09:39:11;;;;;;;2.10;2.00;;;19.10;99.90;;;;;;5096741;28;20470;-88
2021/07/08 09:41:47;;;;;;;2.13;2.03;;;19.00;99.90;;;;;;5097078;28;20464;-88
2021/07/08 09:44:22;;;;;;;2.23;2.13;;;19.00;99.90;;;;;;5096767;28;20443;-88
2021/07/08 09:46:51;;;;;;;1.77;1.67;;;19.00;99.90;;;;;;5096326;28;20420;-88
2021/07/08 09:49:19;;;;;;;2.53;2.33;;;19.00;99.90;;;;;;5096452;28;20468;-88
2021/07/08 09:51:47;;;;;;;2.13;2.03;;;19.00;99.90;;;;;;5096238;28;20930;-88
2021/07/08 09:54:17;;;;;;;2.07;1.90;;;18.90;99.90;;;;;;5096576;28;20432;-88
2021/07/08 09:56:46;;;;;;;2.40;2.20;;;19.00;99.90;;;;;;5096418;28;20468;-88
2021/07/08 09:59:15;;;;;;;2.30;2.20;;;18.90;99.90;;;;;;5096354;28;20473;-88
2021/07/08 10:01:43;;;;;;;2.07;1.97;;;18.90;99.90;;;;;;5096326;28;20472;-87
2021/07/08 10:04:10;;;;;;;2.30;2.20;;;18.90;99.90;;;;;;5096361;28;20926;-88
2021/07/08 10:06:39;;;;;;;2.90;2.70;;;19.00;99.90;;;;;;5096192;28;20421;-88
2021/07/08 10:09:06;;;;;;;1.80;1.70;;;19.10;99.90;;;;;;5096139;28;20468;-88
2021/07/08 10:11:33;;;;;;;2.13;1.90;;;19.20;99.90;;;;;;5096198;28;20432;-88
2021/07/08 10:14:03;;;;;;;2.17;2.07;;;19.30;99.90;;;;;;5096093;28;20793;-88
2021/07/08 10:16:33;;;;;;;2.30;2.20;;;19.40;99.90;;;;;;5095706;28;20468;-88
2021/07/08 10:19:04;;;;;;;2.40;2.20;;;19.40;99.90;;;;;;5095870;28;20504;-88
2021/07/08 10:21:31;;;;;;;2.17;2.07;;;19.40;99.90;;;;;;5095941;28;20517;-87
2021/07/08 10:24:02;;;;;;;2.17;2.07;;;19.40;99.90;;;;;;5095595;28;20948;-87
2021/07/08 10:26:29;;;;;;;2.00;1.90;;;19.40;99.90;;;;;;5095677;28;20774;-87
2021/07/08 10:28:57;;;;;;;2.33;2.20;;;19.50;99.90;;;;;;5095691;28;20463;-88
2021/07/08 10:31:26;;;;;;;2.20;2.10;;;19.60;99.90;;;;;;5096124;28;20420;-88
2021/07/08 10:34:10;;;;;;;2.13;2.03;;;19.60;99.90;;;;;;5095514;28;20911;-88
2021/07/08 10:36:38;;;;;;;3.00;2.70;;;19.70;99.90;;;;;;5095582;28;20460;-88
2021/07/08 10:39:08;;;;;;;1.93;1.83;;;19.70;99.90;;;;;;5095625;28;20475;-89
2021/07/08 10:41:56;;;;;;;2.23;2.13;;;19.80;99.90;;;;;;5095117;28;20444;-87
2021/07/08 10:44:49;;;;;;;2.10;2.00;;;19.80;99.90;;;;;;5095129;28;20428;-85
2021/07/08 10:47:41;;;;;;;2.10;2.00;;;19.80;99.90;;;;;;5095940;28;20432;-86
2021/07/08 10:50:24;;;;;;;3.50;3.20;;;19.90;99.90;;;;;;5092974;28;20542;-87
2021/07/08 10:52:50;;;;;;;2.40;2.30;;;19.90;99.90;;;;;;5082263;28;20456;-86
2021/07/08 10:55:37;;;;;;;2.13;2.03;;;19.90;99.90;;;;;;5095377;28;20435;-87
2021/07/08 10:58:05;;;;;;;2.80;2.60;;;19.80;99.90;;;;;;5095417;28;20848;-87
2021/07/08 11:00:47;;;;;;;1.73;1.63;;;19.70;99.90;;;;;;5095442;28;20455;-86
2021/07/08 11:03:45;;;;;;;2.00;1.90;;;19.70;99.90;;;;;;5095255;28;20431;-86
2021/07/08 11:06:23;;;;;;;2.33;2.10;;;19.70;99.90;;;;;;5095036;28;20426;-86
2021/07/08 11:08:57;;;;;;;1.90;1.80;;;19.70;99.90;;;;;;5095086;28;20463;-88
2021/07/08 11:12:06;;;;;;;1.57;1.47;;;19.60;99.90;;;;;;5095757;28;20425;-86
2021/07/08 11:14:39;;;;;;;1.70;1.60;;;19.60;99.90;;;;;;5095322;28;20452;-85
2021/07/08 11:17:17;;;;;;;1.67;1.57;;;19.60;99.90;;;;;;5095056;28;21053;-87
2021/07/08 11:19:48;;;;;;;2.00;1.90;;;19.60;99.90;;;;;;5095285;28;20463;-86
2021/07/08 11:22:27;;;;;;;2.00;1.90;;;19.50;99.90;;;;;;5095341;28;20490;-86
2021/07/08 11:24:55;;;;;;;2.00;1.90;;;19.50;99.90;;;;;;5099600;28;20845;-85
2021/07/08 11:27:36;;;;;;;1.70;1.60;;;19.60;99.90;;;;;;5095165;28;20424;-86
2021/07/08 11:30:20;;;;;;;1.97;1.87;;;19.60;99.90;;;;;;5095092;28;20465;-86
2021/07/08 11:32:49;;;;;;;1.90;1.80;;;19.60;99.90;;;;;;5098014;28;20444;-85
2021/07/08 11:35:20;;;;;;;2.10;2.00;;;19.70;99.90;;;;;;5100332;28;20436;-86
2021/07/08 11:37:53;;;;;;;1.97;1.87;;;19.70;99.90;;;;;;5095268;28;20606;-86
2021/07/08 11:40:21;;;;;;;2.07;1.97;;;19.90;99.90;;;;;;5095134;28;20773;-87
2021/07/08 11:42:51;;;;;;;1.87;1.77;;;19.90;99.90;;;;;;5094791;28;20432;-87
2021/07/08 11:45:19;;;;;;;1.70;1.60;;;20.00;99.90;;;;;;5094557;28;20408;-86
2021/07/08 11:47:48;;;;;;;1.60;1.50;;;19.90;99.90;;;;;;5094365;28;20468;-86
2021/07/08 11:50:20;;;;;;;1.90;1.80;;;20.00;99.90;;;;;;5094354;28;20428;-86
2021/07/08 11:52:49;;;;;;;1.93;1.83;;;19.90;99.90;;;;;;5093849;28;20926;-86
2021/07/08 11:55:16;;;;;;;1.73;1.63;;;19.90;99.90;;;;;;5094311;28;20436;-87
2021/07/08 11:57:55;;;;;;;1.73;1.63;;;20.00;99.90;;;;;;5094152;28;20491;-86
2021/07/08 12:00:39;;;;;;;1.80;1.73;;;19.90;99.90;;;;;;5094066;28;20467;-86
2021/07/08 12:03:26;;;;;;;1.30;1.30;;;19.70;99.90;;;;;;5094001;28;20486;-86
2021/07/08 12:05:59;;;;;;;1.30;1.23;;;19.70;99.90;;;;;;5094088;28;20929;-88
2021/07/08 12:08:27;;;;;;;1.10;1.10;;;19.70;99.90;;;;;;5093643;28;20461;-86
2021/07/08 12:11:07;;;;;;;1.60;1.50;;;19.70;99.90;;;;;;5093948;28;20413;-87
2021/07/08 12:13:38;;;;;;;1.20;1.20;;;19.70;99.90;;;;;;5094371;28;20471;-87
2021/07/08 12:16:07;;;;;;;1.90;1.80;;;19.80;99.90;;;;;;5093862;28;20438;-87
2021/07/08 12:18:42;;;;;;;1.67;1.40;;;19.80;99.90;;;;;;5093956;28;20490;-86
2021/07/08 12:21:21;;;;;;;1.47;1.37;;;19.90;99.90;;;;;;5093936;28;20435;-87
2021/07/08 12:23:48;;;;;;;1.63;1.53;;;19.90;99.90;;;;;;5093859;28;20436;-87
2021/07/08 12:26:22;;;;;;;1.77;1.47;;;20.00;99.90;;;;;;5093937;28;20440;-86
2021/07/08 12:28:50;;;;;;;1.53;1.43;;;20.00;99.90;;;;;;5093942;28;20822;-87
2021/07/08 12:31:18;;;;;;;1.70;1.60;;;20.00;99.90;;;;;;5093591;28;20436;-87
2021/07/08 12:33:54;;;;;;;1.77;1.67;;;19.90;99.90;;;;;;5093468;28;20469;-87
2021/07/08 12:36:21;;;;;;;1.63;1.53;;;19.90;99.90;;;;;;5094367;28;20475;-85
2021/07/08 12:38:47;;;;;;;3.20;1.50;;;19.90;99.90;;;;;;5093006;28;21017;-87
2021/07/08 12:41:16;;;;;;;2.07;1.97;;;19.90;99.90;;;;;;5093359;28;20436;-84
2021/07/08 12:43:43;;;;;;;2.03;1.93;;;19.80;99.90;;;;;;5093297;28;20420;-84
2021/07/08 12:46:12;;;;;;;1.60;1.50;;;19.70;99.90;;;;;;5093014;28;20428;-84
2021/07/08 12:48:39;;;;;;;2.53;2.13;;;19.70;99.90;;;;;;5093284;28;20464;-85
2021/07/08 12:51:06;;;;;;;3.53;2.53;;;19.70;99.90;;;;;;5093571;28;20766;-84
2021/07/08 12:53:32;;;;;;;2.00;1.90;;;19.60;99.90;;;;;;5092881;28;20792;-83
2021/07/08 12:56:10;;;;;;;29.67;4.37;;;19.50;99.90;;;;;;5093173;28;20412;-84
2021/07/08 12:58:37;;;;;;;2.20;2.10;;;19.30;99.90;;;;;;5092780;28;20483;-84